createdAt,value
2023-02-14T00:04:32.270Z,11.10
2023-02-14T00:09:35.077Z,11.60
2023-02-14T00:14:56.101Z,12.27
2023-02-14T00:19:58.828Z,11.50
2023-02-14T00:25:01.557Z,11.40
2023-02-14T00:30:05.082Z,11.10
2023-02-14T00:35:09.367Z,11.15
2023-02-14T00:40:12.487Z,11.87
2023-02-14T00:45:19.219Z,10.63
2023-02-14T00:50:21.900Z,10.82
2023-02-14T00:55:24.764Z,10.75
2023-02-14T01:00:27.650Z,10.70
2023-02-14T01:05:31.344Z,11.70
2023-02-14T01:10:36.204Z,11.82
2023-02-14T01:15:42.268Z,10.48
2023-02-14T01:20:45.927Z,9.95
2023-02-14T01:25:48.522Z,9.30
2023-02-14T01:30:52.204Z,9.17
2023-02-14T01:35:54.899Z,9.57
2023-02-14T01:40:58.587Z,9.02
2023-02-14T01:46:01.553Z,10.70
2023-02-14T01:51:04.396Z,10.90
2023-02-14T01:56:13.482Z,10.17
2023-02-14T02:01:17.924Z,11.23
2023-02-14T02:06:40.125Z,10.90
2023-02-14T02:11:43.430Z,12.00
2023-02-14T02:17:06.194Z,10.95
2023-02-14T02:22:08.857Z,8.20
2023-02-14T02:27:17.404Z,11.57
2023-02-14T02:32:53.039Z,11.00
2023-02-14T02:38:24.138Z,11.55
2023-02-14T02:44:13.425Z,11.20
2023-02-14T02:49:46.885Z,10.17
2023-02-14T02:55:06.544Z,12.93
2023-02-14T03:00:12.821Z,12.70
2023-02-14T03:05:16.692Z,11.82
2023-02-14T03:10:25.958Z,11.30
2023-02-14T03:15:55.889Z,10.13
2023-02-14T03:21:33.955Z,8.18
2023-02-14T03:26:45.472Z,11.93
2023-02-14T03:31:55.901Z,11.65
2023-02-14T03:37:06.310Z,11.57
2023-02-14T03:42:22.619Z,13.23
2023-02-14T03:47:30.880Z,12.52
2023-02-14T03:52:35.461Z,14.27
2023-02-14T03:58:02.048Z,12.93
2023-02-14T04:03:12.097Z,13.82
2023-02-14T04:08:22.454Z,14.53
2023-02-14T04:13:25.118Z,12.07
2023-02-14T04:18:46.134Z,13.18
2023-02-14T04:23:48.793Z,12.25
2023-02-14T04:28:51.532Z,14.15
2023-02-14T04:33:54.417Z,12.57
2023-02-14T04:38:57.137Z,12.05
2023-02-14T04:43:59.704Z,13.48
2023-02-14T04:49:02.405Z,12.63
2023-02-14T04:54:05.179Z,15.50
2023-02-14T04:59:08.176Z,13.17
2023-02-14T05:04:10.920Z,10.98
2023-02-14T05:09:13.728Z,12.48
2023-02-14T05:14:16.447Z,10.07
2023-02-14T05:19:19.205Z,10.82
2023-02-14T05:24:21.922Z,10.40
2023-02-14T05:29:24.596Z,10.07
2023-02-14T05:34:27.433Z,11.00
2023-02-14T05:39:30.206Z,9.85
2023-02-14T05:44:33.050Z,9.88
2023-02-14T05:49:36.474Z,10.07
2023-02-14T05:54:39.155Z,9.05
2023-02-14T05:59:41.888Z,7.93
2023-02-14T06:04:44.624Z,7.72
2023-02-14T06:09:48.078Z,9.88
2023-02-14T06:14:50.699Z,7.77
2023-02-14T06:19:53.330Z,8.65
2023-02-14T06:24:56.025Z,9.10
2023-02-14T06:29:59.180Z,9.25
2023-02-14T06:35:02.714Z,11.43
2023-02-14T06:40:06.503Z,11.27
2023-02-14T06:45:09.865Z,11.82
2023-02-14T06:50:12.840Z,10.88
2023-02-14T06:55:15.630Z,9.10
2023-02-14T07:00:19.208Z,10.07
2023-02-14T07:05:22.733Z,9.80
2023-02-14T07:10:26.121Z,11.48
2023-02-14T07:15:28.994Z,11.00
2023-02-14T07:20:31.784Z,10.32
2023-02-14T07:25:34.678Z,10.48
2023-02-14T07:30:37.519Z,9.53
2023-02-14T07:35:40.374Z,11.73
2023-02-14T07:40:43.230Z,10.20
2023-02-14T07:45:46.132Z,10.32
2023-02-14T07:50:49.336Z,8.98
2023-02-14T07:55:53.203Z,11.53
2023-02-14T08:00:56.159Z,11.63
2023-02-14T08:05:58.994Z,12.95
2023-02-14T08:11:02.556Z,13.10
2023-02-14T08:16:05.748Z,11.75
2023-02-14T08:21:10.932Z,6.83
2023-02-14T08:26:13.677Z,12.88
2023-02-14T08:31:36.619Z,11.55
2023-02-14T08:36:39.693Z,12.18
2023-02-14T08:41:42.695Z,12.10
2023-02-14T08:46:45.598Z,9.87
2023-02-14T08:51:48.455Z,11.02
2023-02-14T08:56:51.302Z,10.32
2023-02-14T09:01:54.021Z,11.00
2023-02-14T09:06:56.758Z,10.80
2023-02-14T09:11:59.476Z,13.33
2023-02-14T09:17:05.572Z,10.25
2023-02-14T09:22:09.800Z,12.00
2023-02-14T09:27:12.724Z,11.60
2023-02-14T09:32:16.353Z,9.20
2023-02-14T09:37:37.663Z,12.40
2023-02-14T09:43:05.254Z,10.40
2023-02-14T09:48:42.101Z,9.63
2023-02-14T09:53:49.812Z,10.48
2023-02-14T09:59:17.792Z,9.23
2023-02-14T10:04:32.303Z,11.20
2023-02-14T10:09:51.121Z,12.30
2023-02-14T10:14:57.173Z,9.82
2023-02-14T10:20:12.005Z,11.73
2023-02-14T10:25:41.981Z,9.68
2023-02-14T10:30:56.999Z,10.23
2023-02-14T10:36:08.954Z,10.30
2023-02-14T10:41:27.817Z,10.52
2023-02-14T10:47:02.501Z,7.30
2023-02-14T10:52:34.728Z,8.20
2023-02-14T10:57:43.319Z,7.27
2023-02-14T11:02:50.826Z,11.27
2023-02-14T11:07:53.940Z,9.07
2023-02-14T11:12:56.894Z,8.93
2023-02-14T11:18:39.712Z,9.55
2023-02-14T11:23:44.782Z,9.00
2023-02-14T11:28:51.558Z,8.98
2023-02-14T11:33:54.728Z,9.73
2023-02-14T11:39:16.847Z,8.73
2023-02-14T11:44:23.534Z,6.00
2023-02-14T11:49:35.913Z,9.07
2023-02-14T11:54:45.205Z,7.47
2023-02-14T11:59:53.726Z,8.35
2023-02-14T12:05:03.413Z,9.25
2023-02-14T12:10:18.551Z,7.47
2023-02-14T12:15:29.845Z,7.20
2023-02-14T12:20:51.731Z,8.30
2023-02-14T12:26:22.655Z,7.68
2023-02-14T12:31:25.801Z,8.52
2023-02-14T12:36:49.739Z,8.85
2023-02-14T12:42:42.063Z,6.33
2023-02-14T12:48:22.373Z,6.88
2023-02-14T12:53:34.535Z,8.18
2023-02-14T12:58:45.266Z,7.20
2023-02-14T13:04:05.487Z,7.00
2023-02-14T13:09:31.559Z,8.27
2023-02-14T13:14:58.309Z,7.97
2023-02-14T13:20:15.006Z,7.25
2023-02-14T13:25:37.553Z,7.45
2023-02-14T13:30:43.338Z,6.38
2023-02-14T13:35:46.765Z,7.97
2023-02-14T13:40:50.103Z,8.00
2023-02-14T13:45:54.724Z,5.93
2023-02-14T13:51:06.701Z,6.43
2023-02-14T13:56:12.515Z,6.13
2023-02-14T14:01:40.905Z,6.80
2023-02-14T14:07:05.680Z,5.53
2023-02-14T14:12:26.755Z,7.15
2023-02-14T14:17:29.658Z,6.32
2023-02-14T14:22:32.456Z,6.13
2023-02-14T14:27:44.434Z,5.73
2023-02-14T14:32:47.308Z,8.10
2023-02-14T14:37:55.944Z,5.53
2023-02-14T14:43:10.478Z,6.80
2023-02-14T14:48:27.948Z,6.40
2023-02-14T14:53:45.947Z,6.97
2023-02-14T14:58:49.406Z,6.45
2023-02-14T15:03:52.464Z,7.85
2023-02-14T15:08:56.883Z,6.25
2023-02-14T15:14:00.124Z,7.07
2023-02-14T15:19:26.973Z,6.07
2023-02-14T15:24:31.806Z,5.13
2023-02-14T15:29:34.728Z,7.93
2023-02-14T15:34:37.675Z,9.27
2023-02-14T15:39:52.712Z,12.48
2023-02-14T15:45:14.321Z,7.90
2023-02-14T15:50:24.637Z,9.10
2023-02-14T15:55:28.464Z,9.75
2023-02-14T16:00:32.047Z,8.15
2023-02-14T16:05:35.402Z,8.57
2023-02-14T16:10:39.303Z,7.77
2023-02-14T16:15:59.032Z,8.25
2023-02-14T16:21:13.925Z,9.05
2023-02-14T16:26:16.680Z,8.35
2023-02-14T16:31:19.659Z,8.40
2023-02-14T16:36:26.563Z,9.43
2023-02-14T16:41:31.492Z,10.23
2023-02-14T16:46:36.504Z,10.85
2023-02-14T16:51:43.495Z,10.43
2023-02-14T16:57:00.001Z,9.73
2023-02-14T17:02:03.061Z,10.43
2023-02-14T17:07:07.943Z,10.95
2023-02-14T17:12:16.674Z,9.60
2023-02-14T17:17:19.719Z,11.40
2023-02-14T17:22:23.177Z,13.10
2023-02-14T17:27:25.850Z,13.13
2023-02-14T17:32:28.657Z,13.32
2023-02-14T17:37:32.526Z,13.45
2023-02-14T17:42:35.981Z,14.90
2023-02-14T17:47:40.206Z,14.57
2023-02-14T17:52:43.224Z,14.80
2023-02-14T17:57:46.047Z,14.13
2023-02-14T18:02:49.548Z,16.27
2023-02-14T18:07:52.770Z,15.25
2023-02-14T18:12:55.627Z,17.83
2023-02-14T18:17:58.646Z,15.40
2023-02-14T18:23:07.250Z,16.45
2023-02-14T18:28:10.207Z,15.88
2023-02-14T18:33:13.845Z,12.63
2023-02-14T18:38:16.576Z,16.38
2023-02-14T18:43:19.439Z,15.33
2023-02-14T18:48:22.112Z,15.15
2023-02-14T18:53:25.095Z,16.83
2023-02-14T18:58:27.779Z,15.23
2023-02-14T19:03:30.483Z,15.88
2023-02-14T19:08:34.902Z,16.00
2023-02-14T19:13:38.986Z,15.90
2023-02-14T19:18:43.547Z,16.85
2023-02-14T19:23:46.618Z,16.77
2023-02-14T19:28:54.416Z,18.55
2023-02-14T19:33:57.485Z,19.83
2023-02-14T19:39:00.241Z,18.50
2023-02-14T19:44:05.310Z,17.60
2023-02-14T19:49:08.078Z,18.02
2023-02-14T19:54:11.477Z,18.10
2023-02-14T19:59:20.422Z,18.37
2023-02-14T20:04:25.867Z,19.15
2023-02-14T20:09:29.496Z,18.63
2023-02-14T20:14:50.324Z,17.50
2023-02-14T20:19:55.316Z,18.33
2023-02-14T20:24:58.208Z,21.83
2023-02-14T20:30:01.488Z,19.70
2023-02-14T20:35:05.029Z,20.92
2023-02-14T20:40:10.120Z,19.73
2023-02-14T20:45:12.982Z,18.65
2023-02-14T20:50:15.881Z,19.13
2023-02-14T20:55:18.596Z,21.83
2023-02-14T21:00:25.810Z,20.65
2023-02-14T21:05:29.074Z,21.20
2023-02-14T21:10:31.827Z,22.30
2023-02-14T21:15:34.713Z,21.33
2023-02-14T21:20:37.504Z,21.92
2023-02-14T21:25:40.338Z,21.23
2023-02-14T21:30:43.153Z,20.88
2023-02-14T21:35:45.880Z,21.88
2023-02-14T21:40:48.639Z,21.40
2023-02-14T21:45:55.764Z,21.13
2023-02-14T21:50:58.592Z,19.45
2023-02-14T21:56:10.709Z,19.80
2023-02-14T22:01:23.202Z,21.88
2023-02-14T22:06:27.310Z,20.83
2023-02-14T22:11:30.553Z,20.95
2023-02-14T22:16:33.270Z,20.98
2023-02-14T22:21:36.052Z,21.15
2023-02-14T22:26:40.935Z,21.65
2023-02-14T22:31:44.571Z,21.63
2023-02-14T22:36:48.862Z,21.27
2023-02-14T22:41:51.583Z,19.17
2023-02-14T22:46:54.369Z,21.23
2023-02-14T22:51:57.584Z,20.25
2023-02-14T22:57:00.449Z,22.30
2023-02-14T23:02:03.419Z,20.23
2023-02-14T23:07:06.163Z,20.08
2023-02-14T23:12:28.895Z,21.52
2023-02-14T23:17:50.053Z,21.48
2023-02-14T23:22:52.906Z,21.20
2023-02-14T23:27:55.643Z,22.38
2023-02-14T23:32:58.446Z,22.40
2023-02-14T23:38:01.215Z,24.10
2023-02-14T23:43:03.929Z,21.75
2023-02-14T23:48:06.765Z,22.77
2023-02-14T23:53:09.609Z,21.25
2023-02-14T23:58:12.381Z,21.42
